sensor_id;sensor_type;location;lat;lon;timestamp;pressure;altitude;pressure_sealevel;temperature;humidity
15568;BME280;7885;42.596;23.044;2023-04-23T00:00:24;92892.91;;;8.48;86.54
15568;BME280;7885;42.596;23.044;2023-04-23T00:02:52;92899.47;;;8.40;83.77
15568;BME280;7885;42.596;23.044;2023-04-23T00:05:19;92898.66;;;8.29;83.92
15568;BME280;7885;42.596;23.044;2023-04-23T00:07:47;92893.97;;;8.26;83.02
15568;BME280;7885;42.596;23.044;2023-04-23T00:10:16;92888.09;;;8.17;80.69
15568;BME280;7885;42.596;23.044;2023-04-23T00:12:44;92896.56;;;8.05;83.78
15568;BME280;7885;42.596;23.044;2023-04-23T00:15:12;92875.97;;;7.93;82.85
15568;BME280;7885;42.596;23.044;2023-04-23T00:17:39;92889.97;;;8.06;82.86
15568;BME280;7885;42.596;23.044;2023-04-23T00:20:07;92889.22;;;8.09;84.30
15568;BME280;7885;42.596;23.044;2023-04-23T00:22:34;92889.19;;;8.05;85.50
15568;BME280;7885;42.596;23.044;2023-04-23T00:25:01;92877.91;;;7.96;86.17
15568;BME280;7885;42.596;23.044;2023-04-23T00:27:29;92874.81;;;7.98;86.65
15568;BME280;7885;42.596;23.044;2023-04-23T00:29:55;92888.41;;;8.05;86.47
15568;BME280;7885;42.596;23.044;2023-04-23T00:32:22;92887.56;;;7.90;86.54
15568;BME280;7885;42.596;23.044;2023-04-23T00:34:49;92882.88;;;7.84;87.93
15568;BME280;7885;42.596;23.044;2023-04-23T00:37:16;92878.56;;;7.72;89.62
15568;BME280;7885;42.596;23.044;2023-04-23T00:39:43;92880.47;;;7.72;90.43
15568;BME280;7885;42.596;23.044;2023-04-23T00:42:10;92881.19;;;7.61;89.96
15568;BME280;7885;42.596;23.044;2023-04-23T00:44:38;92881.16;;;7.58;89.80
15568;BME280;7885;42.596;23.044;2023-04-23T00:47:06;92877.97;;;7.49;86.98
15568;BME280;7885;42.596;23.044;2023-04-23T00:49:33;92881.13;;;7.54;85.41
15568;BME280;7885;42.596;23.044;2023-04-23T00:52:00;92888.06;;;7.52;83.75
15568;BME280;7885;42.596;23.044;2023-04-23T00:54:26;92885.72;;;7.47;83.25
15568;BME280;7885;42.596;23.044;2023-04-23T00:56:54;92881.88;;;7.48;84.38
15568;BME280;7885;42.596;23.044;2023-04-23T00:59:22;92883.38;;;7.45;86.97
15568;BME280;7885;42.596;23.044;2023-04-23T01:01:51;92888.06;;;7.52;87.89
15568;BME280;7885;42.596;23.044;2023-04-23T01:04:19;92892.75;;;7.58;87.16
15568;BME280;7885;42.596;23.044;2023-04-23T01:06:47;92897.81;;;7.63;86.71
15568;BME280;7885;42.596;23.044;2023-04-23T01:09:14;92899.75;;;7.63;85.76
15568;BME280;7885;42.596;23.044;2023-04-23T01:11:42;92892.81;;;7.66;85.80
15568;BME280;7885;42.596;23.044;2023-04-23T01:14:10;92898.22;;;7.66;85.02
15568;BME280;7885;42.596;23.044;2023-04-23T01:16:37;92896.75;;;7.72;86.55
15568;BME280;7885;42.596;23.044;2023-04-23T01:19:08;92878.13;;;7.67;85.43
15568;BME280;7885;42.596;23.044;2023-04-23T01:21:36;92897.13;;;7.74;85.11
15568;BME280;7885;42.596;23.044;2023-04-23T01:24:08;92902.19;;;7.75;84.00
15568;BME280;7885;42.596;23.044;2023-04-23T01:26:35;92899.78;;;7.67;83.22
15568;BME280;7885;42.596;23.044;2023-04-23T01:29:02;92887.31;;;7.51;83.07
15568;BME280;7885;42.596;23.044;2023-04-23T01:31:29;92893.50;;;7.55;84.10
15568;BME280;7885;42.596;23.044;2023-04-23T01:33:56;92885.00;;;7.53;85.02
15568;BME280;7885;42.596;23.044;2023-04-23T01:36:24;92895.41;;;7.48;83.99
15568;BME280;7885;42.596;23.044;2023-04-23T01:38:51;92898.88;;;7.48;83.21
15568;BME280;7885;42.596;23.044;2023-04-23T01:41:19;92899.63;;;7.45;83.74
15568;BME280;7885;42.596;23.044;2023-04-23T01:43:46;92894.97;;;7.46;83.65
15568;BME280;7885;42.596;23.044;2023-04-23T01:46:13;92904.19;;;7.38;81.27
15568;BME280;7885;42.596;23.044;2023-04-23T01:48:40;92899.50;;;7.31;82.03
15568;BME280;7885;42.596;23.044;2023-04-23T01:51:07;92895.94;;;7.20;83.66
15568;BME280;7885;42.596;23.044;2023-04-23T01:53:34;92886.25;;;7.19;85.30
15568;BME280;7885;42.596;23.044;2023-04-23T01:56:01;92890.84;;;7.15;86.72
15568;BME280;7885;42.596;23.044;2023-04-23T01:58:29;92886.19;;;7.12;86.23
15568;BME280;7885;42.596;23.044;2023-04-23T02:00:56;92896.56;;;7.03;87.18
15568;BME280;7885;42.596;23.044;2023-04-23T02:03:23;92886.06;;;6.98;88.94
15568;BME280;7885;42.596;23.044;2023-04-23T02:05:51;92896.59;;;7.06;88.90
15568;BME280;7885;42.596;23.044;2023-04-23T02:08:19;92900.09;;;7.10;87.25
15568;BME280;7885;42.596;23.044;2023-04-23T02:10:46;92899.41;;;7.21;86.71
15568;BME280;7885;42.596;23.044;2023-04-23T02:13:13;92888.56;;;7.21;84.25
15568;BME280;7885;42.596;23.044;2023-04-23T02:15:41;92900.13;;;7.14;82.73
15568;BME280;7885;42.596;23.044;2023-04-23T02:18:08;92901.63;;;7.08;83.41
15568;BME280;7885;42.596;23.044;2023-04-23T02:20:36;92902.31;;;7.01;84.21
15568;BME280;7885;42.596;23.044;2023-04-23T02:23:05;92898.03;;;6.97;86.90
15568;BME280;7885;42.596;23.044;2023-04-23T02:25:32;92879.72;;;6.83;85.77
15568;BME280;7885;42.596;23.044;2023-04-23T02:27:59;92908.34;;;6.84;83.05
15568;BME280;7885;42.596;23.044;2023-04-23T02:30:29;92893.56;;;6.75;83.10
15568;BME280;7885;42.596;23.044;2023-04-23T02:32:57;92902.84;;;6.77;82.65
15568;BME280;7885;42.596;23.044;2023-04-23T02:35:24;92905.16;;;6.75;83.91
15568;BME280;7885;42.596;23.044;2023-04-23T02:37:51;92898.06;;;6.64;85.29
15568;BME280;7885;42.596;23.044;2023-04-23T02:40:19;92900.38;;;6.62;85.31
15568;BME280;7885;42.596;23.044;2023-04-23T02:42:45;92893.66;;;6.48;87.83
15568;BME280;7885;42.596;23.044;2023-04-23T02:45:12;92898.56;;;6.39;89.17
15568;BME280;7885;42.596;23.044;2023-04-23T02:47:39;92900.50;;;6.39;90.76
15568;BME280;7885;42.596;23.044;2023-04-23T02:50:07;92894.31;;;6.38;90.45
15568;BME280;7885;42.596;23.044;2023-04-23T02:52:34;92899.72;;;6.38;88.37
15568;BME280;7885;42.596;23.044;2023-04-23T02:55:01;92904.72;;;6.36;87.33
15568;BME280;7885;42.596;23.044;2023-04-23T02:57:28;92902.28;;;6.28;89.20
15568;BME280;7885;42.596;23.044;2023-04-23T02:59:55;92904.19;;;6.24;89.70
15568;BME280;7885;42.596;23.044;2023-04-23T03:02:22;92905.38;;;6.26;91.87
15568;BME280;7885;42.596;23.044;2023-04-23T03:04:48;92907.72;;;6.31;89.83
15568;BME280;7885;42.596;23.044;2023-04-23T03:07:17;92906.97;;;6.31;86.29
15568;BME280;7885;42.596;23.044;2023-04-23T03:09:43;92917.03;;;6.34;85.51
15568;BME280;7885;42.596;23.044;2023-04-23T03:12:10;92907.78;;;6.35;88.31
15568;BME280;7885;42.596;23.044;2023-04-23T03:14:37;92909.38;;;6.39;91.16
15568;BME280;7885;42.596;23.044;2023-04-23T03:17:04;92901.31;;;6.43;92.09
15568;BME280;7885;42.596;23.044;2023-04-23T03:19:30;92917.97;;;6.48;90.98
15568;BME280;7885;42.596;23.044;2023-04-23T03:21:57;92900.97;;;6.44;87.35
15568;BME280;7885;42.596;23.044;2023-04-23T03:24:25;92912.91;;;6.43;86.98
15568;BME280;7885;42.596;23.044;2023-04-23T03:26:52;92905.53;;;6.40;86.62
15568;BME280;7885;42.596;23.044;2023-04-23T03:29:19;92916.00;;;6.45;86.41
15568;BME280;7885;42.596;23.044;2023-04-23T03:31:45;92915.69;;;6.50;86.17
15568;BME280;7885;42.596;23.044;2023-04-23T03:34:12;92911.47;;;6.53;85.60
15568;BME280;7885;42.596;23.044;2023-04-23T03:36:39;92893.56;;;6.41;86.01
15568;BME280;7885;42.596;23.044;2023-04-23T03:39:05;92909.16;;;6.51;86.62
15568;BME280;7885;42.596;23.044;2023-04-23T03:41:34;92918.44;;;6.54;86.97
15568;BME280;7885;42.596;23.044;2023-04-23T03:44:01;92911.00;;;6.44;85.85
15568;BME280;7885;42.596;23.044;2023-04-23T03:46:28;92914.88;;;6.46;86.40
15568;BME280;7885;42.596;23.044;2023-04-23T03:48:54;92914.09;;;6.46;87.24
15568;BME280;7885;42.596;23.044;2023-04-23T03:51:21;92912.56;;;6.48;87.23
15568;BME280;7885;42.596;23.044;2023-04-23T03:53:48;92923.38;;;6.48;88.25
15568;BME280;7885;42.596;23.044;2023-04-23T03:56:15;92918.00;;;6.52;86.34
15568;BME280;7885;42.596;23.044;2023-04-23T03:58:43;92928.13;;;6.58;85.71
15568;BME280;7885;42.596;23.044;2023-04-23T04:01:10;92928.91;;;6.59;85.20
15568;BME280;7885;42.596;23.044;2023-04-23T04:03:36;92927.50;;;6.69;85.01
15568;BME280;7885;42.596;23.044;2023-04-23T04:06:04;92922.84;;;6.69;84.67
15568;BME280;7885;42.596;23.044;2023-04-23T04:08:30;92932.25;;;6.79;84.78
15568;BME280;7885;42.596;23.044;2023-04-23T04:10:57;92929.94;;;6.81;85.26
15568;BME280;7885;42.596;23.044;2023-04-23T04:13:24;92924.88;;;6.79;85.92
15568;BME280;7885;42.596;23.044;2023-04-23T04:15:52;92937.81;;;6.93;86.65
15568;BME280;7885;42.596;23.044;2023-04-23T04:18:18;92933.28;;;7.04;87.18
15568;BME280;7885;42.596;23.044;2023-04-23T04:20:45;92906.97;;;7.01;87.04
15568;BME280;7885;42.596;23.044;2023-04-23T04:23:12;92908.25;;;7.14;86.95
15568;BME280;7885;42.596;23.044;2023-04-23T04:25:39;92939.84;;;7.43;86.78
15568;BME280;7885;42.596;23.044;2023-04-23T04:28:06;92918.13;;;7.36;86.49
15568;BME280;7885;42.596;23.044;2023-04-23T04:30:33;92947.28;;;7.53;86.31
15568;BME280;7885;42.596;23.044;2023-04-23T04:33:02;92952.75;;;7.60;86.30
15568;BME280;7885;42.596;23.044;2023-04-23T04:35:28;92946.63;;;7.71;86.65
15568;BME280;7885;42.596;23.044;2023-04-23T04:37:55;92947.03;;;7.73;86.56
15568;BME280;7885;42.596;23.044;2023-04-23T04:40:23;92947.88;;;7.84;86.96
15568;BME280;7885;42.596;23.044;2023-04-23T04:42:50;92954.16;;;7.95;86.92
15568;BME280;7885;42.596;23.044;2023-04-23T04:45:17;92950.31;;;7.96;86.63
15568;BME280;7885;42.596;23.044;2023-04-23T04:47:44;92953.47;;;8.05;86.33
15568;BME280;7885;42.596;23.044;2023-04-23T04:50:12;92959.69;;;8.09;86.56
15568;BME280;7885;42.596;23.044;2023-04-23T04:52:39;92956.63;;;8.18;86.16
15568;BME280;7885;42.596;23.044;2023-04-23T04:55:06;92959.81;;;8.27;85.73
15568;BME280;7885;42.596;23.044;2023-04-23T04:57:33;92961.41;;;8.35;85.31
15568;BME280;7885;42.596;23.044;2023-04-23T05:00:01;92963.75;;;8.36;85.01
15568;BME280;7885;42.596;23.044;2023-04-23T05:02:44;92966.13;;;8.48;84.51
15568;BME280;7885;42.596;23.044;2023-04-23T05:05:12;92969.66;;;8.52;84.39
15568;BME280;7885;42.596;23.044;2023-04-23T05:07:39;92966.19;;;8.55;83.30
15568;BME280;7885;42.596;23.044;2023-04-23T05:10:06;92957.63;;;8.50;83.56
15568;BME280;7885;42.596;23.044;2023-04-23T05:12:33;92967.00;;;8.63;83.31
15568;BME280;7885;42.596;23.044;2023-04-23T05:18:23;92971.31;;;8.75;82.92
15568;BME280;7885;42.596;23.044;2023-04-23T05:20:51;92974.09;;;8.89;82.92
15568;BME280;7885;42.596;23.044;2023-04-23T05:23:18;92948.47;;;8.83;83.33
15568;BME280;7885;42.596;23.044;2023-04-23T05:25:45;92979.19;;;9.08;82.57
15568;BME280;7885;42.596;23.044;2023-04-23T05:28:12;92981.94;;;9.15;82.53
15568;BME280;7885;42.596;23.044;2023-04-23T05:30:39;92981.16;;;9.22;82.44
15568;BME280;7885;42.596;23.044;2023-04-23T05:33:06;92989.75;;;9.31;82.49
15568;BME280;7885;42.596;23.044;2023-04-23T05:35:33;92982.75;;;9.33;82.57
15568;BME280;7885;42.596;23.044;2023-04-23T05:38:01;92986.66;;;9.46;82.89
15568;BME280;7885;42.596;23.044;2023-04-23T05:40:29;92984.34;;;9.52;82.85
15568;BME280;7885;42.596;23.044;2023-04-23T05:42:57;92979.69;;;9.52;83.61
15568;BME280;7885;42.596;23.044;2023-04-23T05:45:23;92974.25;;;9.59;83.29
15568;BME280;7885;42.596;23.044;2023-04-23T05:47:50;92964.53;;;9.58;83.76
15568;BME280;7885;42.596;23.044;2023-04-23T05:50:18;92980.50;;;9.71;83.12
15568;BME280;7885;42.596;23.044;2023-04-23T05:52:44;92989.03;;;9.80;83.59
15568;BME280;7885;42.596;23.044;2023-04-23T05:55:13;92992.94;;;9.86;83.43
15568;BME280;7885;42.596;23.044;2023-04-23T05:57:40;92989.44;;;9.92;84.02
15568;BME280;7885;42.596;23.044;2023-04-23T06:00:08;92984.38;;;10.01;83.68
15568;BME280;7885;42.596;23.044;2023-04-23T06:02:36;92952.13;;;10.00;82.75
15568;BME280;7885;42.596;23.044;2023-04-23T06:05:03;92973.53;;;10.19;82.79
15568;BME280;7885;42.596;23.044;2023-04-23T06:07:30;92980.88;;;10.36;82.49
15568;BME280;7885;42.596;23.044;2023-04-23T06:09:57;92983.19;;;10.41;83.42
15568;BME280;7885;42.596;23.044;2023-04-23T06:12:25;92992.13;;;10.56;82.68
15568;BME280;7885;42.596;23.044;2023-04-23T06:14:52;92975.00;;;10.59;82.30
15568;BME280;7885;42.596;23.044;2023-04-23T06:17:19;92985.06;;;10.80;80.90
15568;BME280;7885;42.596;23.044;2023-04-23T06:19:45;92990.91;;;10.85;80.87
15568;BME280;7885;42.596;23.044;2023-04-23T06:22:12;92985.03;;;10.87;81.29
15568;BME280;7885;42.596;23.044;2023-04-23T06:24:39;92983.41;;;11.03;81.04
15568;BME280;7885;42.596;23.044;2023-04-23T06:27:05;92980.31;;;11.05;80.54
15568;BME280;7885;42.596;23.044;2023-04-23T06:29:34;92990.44;;;11.01;80.87
15568;BME280;7885;42.596;23.044;2023-04-23T06:32:01;92988.13;;;11.03;80.79
15568;BME280;7885;42.596;23.044;2023-04-23T06:34:29;92991.16;;;11.19;80.00
15568;BME280;7885;42.596;23.044;2023-04-23T06:36:56;92978.63;;;11.29;80.64
15568;BME280;7885;42.596;23.044;2023-04-23T06:39:22;92987.09;;;11.48;79.53
15568;BME280;7885;42.596;23.044;2023-04-23T06:41:49;92984.72;;;11.57;80.70
15568;BME280;7885;42.596;23.044;2023-04-23T06:44:16;92982.66;;;11.76;79.62
15568;BME280;7885;42.596;23.044;2023-04-23T06:46:44;92970.91;;;11.89;79.81
15568;BME280;7885;42.596;23.044;2023-04-23T06:49:11;92977.41;;;12.06;78.28
15568;BME280;7885;42.596;23.044;2023-04-23T06:51:37;92950.59;;;11.94;77.84
15568;BME280;7885;42.596;23.044;2023-04-23T06:54:04;92982.59;;;12.34;77.76
15568;BME280;7885;42.596;23.044;2023-04-23T06:56:31;92967.41;;;12.37;77.82
15568;BME280;7885;42.596;23.044;2023-04-23T06:58:58;92976.66;;;12.46;76.28
15568;BME280;7885;42.596;23.044;2023-04-23T07:01:25;92979.00;;;12.48;77.57
15568;BME280;7885;42.596;23.044;2023-04-23T07:03:53;92972.59;;;12.65;76.93
15568;BME280;7885;42.596;23.044;2023-04-23T07:06:20;92979.13;;;12.75;77.30
15568;BME280;7885;42.596;23.044;2023-04-23T07:08:47;92979.78;;;12.86;75.79
15568;BME280;7885;42.596;23.044;2023-04-23T07:11:14;92974.25;;;12.93;77.64
15568;BME280;7885;42.596;23.044;2023-04-23T07:13:41;92983.06;;;13.04;76.00
15568;BME280;7885;42.596;23.044;2023-04-23T07:16:08;92980.34;;;13.04;75.13
15568;BME280;7885;42.596;23.044;2023-04-23T07:18:34;92983.41;;;13.13;74.92
15568;BME280;7885;42.596;23.044;2023-04-23T07:21:02;92992.53;;;13.33;75.78
15568;BME280;7885;42.596;23.044;2023-04-23T07:23:29;92979.22;;;13.35;73.96
15568;BME280;7885;42.596;23.044;2023-04-23T07:25:56;92972.31;;;13.27;74.74
15568;BME280;7885;42.596;23.044;2023-04-23T07:28:23;92974.84;;;13.41;74.11
15568;BME280;7885;42.596;23.044;2023-04-23T07:30:50;92965.41;;;13.46;73.32
15568;BME280;7885;42.596;23.044;2023-04-23T07:33:17;92980.41;;;13.64;73.26
15568;BME280;7885;42.596;23.044;2023-04-23T07:35:44;92980.84;;;13.86;73.04
15568;BME280;7885;42.596;23.044;2023-04-23T07:38:12;92967.44;;;13.95;72.49
15568;BME280;7885;42.596;23.044;2023-04-23T07:40:39;92974.56;;;14.16;71.58
15568;BME280;7885;42.596;23.044;2023-04-23T07:43:06;92972.25;;;14.38;73.57
15568;BME280;7885;42.596;23.044;2023-04-23T07:45:32;92976.38;;;14.49;70.62
15568;BME280;7885;42.596;23.044;2023-04-23T07:47:59;92968.75;;;14.60;70.04
15568;BME280;7885;42.596;23.044;2023-04-23T07:50:26;92966.09;;;14.77;67.89
15568;BME280;7885;42.596;23.044;2023-04-23T07:52:53;92970.03;;;14.76;67.29
15568;BME280;7885;42.596;23.044;2023-04-23T07:55:21;92958.28;;;14.98;67.73
15568;BME280;7885;42.596;23.044;2023-04-23T07:57:48;92971.84;;;15.25;66.29
15568;BME280;7885;42.596;23.044;2023-04-23T08:00:15;92966.53;;;15.34;60.75
15568;BME280;7885;42.596;23.044;2023-04-23T08:02:42;92966.41;;;15.41;60.96
15568;BME280;7885;42.596;23.044;2023-04-23T08:05:09;92960.81;;;15.48;60.85
15568;BME280;7885;42.596;23.044;2023-04-23T08:07:36;92956.66;;;15.60;60.08
15568;BME280;7885;42.596;23.044;2023-04-23T08:10:03;92961.91;;;15.71;59.22
15568;BME280;7885;42.596;23.044;2023-04-23T08:12:33;92970.38;;;15.96;58.53
15568;BME280;7885;42.596;23.044;2023-04-23T08:15:00;92964.88;;;16.12;57.76
15568;BME280;7885;42.596;23.044;2023-04-23T08:17:27;92954.75;;;16.41;56.49
15568;BME280;7885;42.596;23.044;2023-04-23T08:19:53;92964.09;;;16.76;55.03
15568;BME280;7885;42.596;23.044;2023-04-23T08:22:20;92954.31;;;17.20;54.23
15568;BME280;7885;42.596;23.044;2023-04-23T08:24:47;92962.41;;;17.52;52.43
15568;BME280;7885;42.596;23.044;2023-04-23T08:27:14;92955.66;;;17.70;49.94
15568;BME280;7885;42.596;23.044;2023-04-23T08:29:42;92946.78;;;18.16;50.65
15568;BME280;7885;42.596;23.044;2023-04-23T08:32:08;92952.72;;;18.52;48.31
15568;BME280;7885;42.596;23.044;2023-04-23T08:34:35;92947.50;;;18.67;44.41
15568;BME280;7885;42.596;23.044;2023-04-23T08:37:02;92945.97;;;19.00;46.25
15568;BME280;7885;42.596;23.044;2023-04-23T08:39:30;92931.56;;;19.40;46.11
15568;BME280;7885;42.596;23.044;2023-04-23T08:41:59;92938.13;;;19.77;42.77
15568;BME280;7885;42.596;23.044;2023-04-23T08:44:29;92933.19;;;20.02;40.90
15568;BME280;7885;42.596;23.044;2023-04-23T08:50:19;92931.06;;;20.46;39.57
15568;BME280;7885;42.596;23.044;2023-04-23T08:52:49;92925.47;;;20.77;38.35
15568;BME280;7885;42.596;23.044;2023-04-23T08:55:19;92926.28;;;21.14;38.21
15568;BME280;7885;42.596;23.044;2023-04-23T08:57:47;92925.97;;;21.39;38.90
15568;BME280;7885;42.596;23.044;2023-04-23T09:00:16;92927.94;;;21.66;39.18
15568;BME280;7885;42.596;23.044;2023-04-23T09:02:45;92913.41;;;21.89;38.20
15568;BME280;7885;42.596;23.044;2023-04-23T09:05:12;92920.78;;;21.23;37.25
15568;BME280;7885;42.596;23.044;2023-04-23T09:07:41;92913.28;;;20.65;38.87
15568;BME280;7885;42.596;23.044;2023-04-23T09:10:09;92911.09;;;20.51;36.90
15568;BME280;7885;42.596;23.044;2023-04-23T09:12:38;92911.19;;;20.97;36.82
15568;BME280;7885;42.596;23.044;2023-04-23T09:15:06;92923.19;;;21.66;35.96
15568;BME280;7885;42.596;23.044;2023-04-23T09:17:36;92915.44;;;21.98;33.84
15568;BME280;7885;42.596;23.044;2023-04-23T09:20:04;92913.50;;;22.22;32.45
15568;BME280;7885;42.596;23.044;2023-04-23T09:22:41;92909.41;;;22.41;33.51
15568;BME280;7885;42.596;23.044;2023-04-23T09:25:09;92901.19;;;22.80;33.27
15568;BME280;7885;42.596;23.044;2023-04-23T09:27:37;92904.50;;;23.17;32.70
15568;BME280;7885;42.596;23.044;2023-04-23T09:30:04;92897.22;;;23.19;31.02
15568;BME280;7885;42.596;23.044;2023-04-23T09:32:33;92907.88;;;23.35;31.58
15568;BME280;7885;42.596;23.044;2023-04-23T09:35:02;92901.72;;;23.70;30.82
15568;BME280;7885;42.596;23.044;2023-04-23T09:37:29;92904.72;;;23.95;30.61
15568;BME280;7885;42.596;23.044;2023-04-23T09:39:59;92899.44;;;23.97;30.31
15568;BME280;7885;42.596;23.044;2023-04-23T09:42:26;92899.13;;;24.39;29.59
15568;BME280;7885;42.596;23.044;2023-04-23T09:44:55;92891.00;;;24.71;28.40
15568;BME280;7885;42.596;23.044;2023-04-23T09:47:23;92889.94;;;24.68;26.75
15568;BME280;7885;42.596;23.044;2023-04-23T09:49:49;92872.06;;;24.75;28.48
15568;BME280;7885;42.596;23.044;2023-04-23T09:52:17;92884.91;;;24.87;28.27
15568;BME280;7885;42.596;23.044;2023-04-23T09:54:44;92887.41;;;25.05;28.61
15568;BME280;7885;42.596;23.044;2023-04-23T09:57:13;92882.41;;;25.09;26.97
15568;BME280;7885;42.596;23.044;2023-04-23T09:59:39;92875.31;;;25.08;26.25
15568;BME280;7885;42.596;23.044;2023-04-23T10:02:07;92875.69;;;25.41;25.40
15568;BME280;7885;42.596;23.044;2023-04-23T10:04:34;92875.41;;;25.59;25.44
15568;BME280;7885;42.596;23.044;2023-04-23T10:07:03;92874.97;;;25.67;25.55
15568;BME280;7885;42.596;23.044;2023-04-23T10:09:33;92866.84;;;25.43;26.54
15568;BME280;7885;42.596;23.044;2023-04-23T10:12:01;92859.56;;;25.25;25.17
15568;BME280;7885;42.596;23.044;2023-04-23T10:14:30;92857.19;;;25.18;26.10
15568;BME280;7885;42.596;23.044;2023-04-23T10:16:58;92854.13;;;25.16;25.12
15568;BME280;7885;42.596;23.044;2023-04-23T10:19:26;92852.22;;;24.67;23.71
15568;BME280;7885;42.596;23.044;2023-04-23T10:21:54;92851.22;;;24.15;24.83
15568;BME280;7885;42.596;23.044;2023-04-23T10:24:26;92838.34;;;24.18;24.49
15568;BME280;7885;42.596;23.044;2023-04-23T10:26:56;92842.91;;;23.86;24.64
15568;BME280;7885;42.596;23.044;2023-04-23T10:29:26;92841.25;;;23.79;27.12
15568;BME280;7885;42.596;23.044;2023-04-23T10:31:57;92837.66;;;24.37;24.05
15568;BME280;7885;42.596;23.044;2023-04-23T10:34:25;92818.84;;;25.07;23.54
15568;BME280;7885;42.596;23.044;2023-04-23T10:36:53;92826.63;;;25.49;23.95
15568;BME280;7885;42.596;23.044;2023-04-23T10:39:20;92823.72;;;25.38;23.37
15568;BME280;7885;42.596;23.044;2023-04-23T10:41:48;92818.22;;;25.70;24.37
15568;BME280;7885;42.596;23.044;2023-04-23T10:47:38;92805.16;;;26.12;25.24
15568;BME280;7885;42.596;23.044;2023-04-23T10:50:18;92804.09;;;26.10;25.49
15568;BME280;7885;42.596;23.044;2023-04-23T10:52:45;92813.91;;;26.00;24.53
15568;BME280;7885;42.596;23.044;2023-04-23T10:55:16;92812.19;;;26.02;23.28
15568;BME280;7885;42.596;23.044;2023-04-23T10:57:58;92803.19;;;26.19;23.52
15568;BME280;7885;42.596;23.044;2023-04-23T11:00:25;92803.22;;;26.24;23.89
15568;BME280;7885;42.596;23.044;2023-04-23T11:02:54;92803.81;;;26.34;23.98
15568;BME280;7885;42.596;23.044;2023-04-23T11:05:21;92811.00;;;25.83;22.77
15568;BME280;7885;42.596;23.044;2023-04-23T11:08:02;92798.56;;;25.07;24.14
15568;BME280;7885;42.596;23.044;2023-04-23T11:10:30;92805.81;;;25.19;24.73
15568;BME280;7885;42.596;23.044;2023-04-23T11:12:57;92802.38;;;25.55;22.81
15568;BME280;7885;42.596;23.044;2023-04-23T11:15:23;92798.09;;;25.34;22.05
15568;BME280;7885;42.596;23.044;2023-04-23T11:18:00;92798.56;;;25.07;21.77
15568;BME280;7885;42.596;23.044;2023-04-23T11:20:27;92803.16;;;24.49;20.77
15568;BME280;7885;42.596;23.044;2023-04-23T11:22:54;92801.75;;;24.19;21.78
15568;BME280;7885;42.596;23.044;2023-04-23T11:25:22;92794.97;;;23.91;22.17
15568;BME280;7885;42.596;23.044;2023-04-23T11:27:50;92799.03;;;23.75;23.28
15568;BME280;7885;42.596;23.044;2023-04-23T11:30:20;92805.03;;;23.74;22.95
15568;BME280;7885;42.596;23.044;2023-04-23T11:32:49;92786.38;;;23.59;21.68
15568;BME280;7885;42.596;23.044;2023-04-23T11:35:19;92805.63;;;23.48;21.36
15568;BME280;7885;42.596;23.044;2023-04-23T11:37:46;92795.06;;;23.38;23.12
15568;BME280;7885;42.596;23.044;2023-04-23T11:40:15;92797.53;;;23.21;22.52
15568;BME280;7885;42.596;23.044;2023-04-23T11:42:44;92796.44;;;22.65;25.30
15568;BME280;7885;42.596;23.044;2023-04-23T11:45:16;92795.34;;;22.25;24.52
15568;BME280;7885;42.596;23.044;2023-04-23T11:47:43;92800.81;;;22.10;23.59
15568;BME280;7885;42.596;23.044;2023-04-23T11:50:17;92776.28;;;21.94;24.08
15568;BME280;7885;42.596;23.044;2023-04-23T11:52:44;92794.22;;;22.07;24.92
15568;BME280;7885;42.596;23.044;2023-04-23T11:55:11;92780.00;;;22.14;25.15
15568;BME280;7885;42.596;23.044;2023-04-23T11:57:40;92790.28;;;22.23;26.62
15568;BME280;7885;42.596;23.044;2023-04-23T12:00:15;92792.03;;;22.35;27.14
15568;BME280;7885;42.596;23.044;2023-04-23T12:02:50;92784.56;;;22.03;26.15
15568;BME280;7885;42.596;23.044;2023-04-23T12:05:20;92781.63;;;21.64;25.09
15568;BME280;7885;42.596;23.044;2023-04-23T12:07:48;92786.34;;;21.73;25.11
15568;BME280;7885;42.596;23.044;2023-04-23T12:10:17;92780.03;;;21.73;25.63
15568;BME280;7885;42.596;23.044;2023-04-23T12:12:48;92787.41;;;21.76;25.36
15568;BME280;7885;42.596;23.044;2023-04-23T12:15:15;92772.72;;;21.51;25.37
15568;BME280;7885;42.596;23.044;2023-04-23T12:17:41;92778.84;;;20.95;25.91
15568;BME280;7885;42.596;23.044;2023-04-23T12:20:09;92775.31;;;20.77;27.04
15568;BME280;7885;42.596;23.044;2023-04-23T12:22:39;92778.25;;;20.64;26.55
15568;BME280;7885;42.596;23.044;2023-04-23T12:25:06;92771.66;;;20.61;26.16
15568;BME280;7885;42.596;23.044;2023-04-23T12:27:38;92771.34;;;20.59;28.08
15568;BME280;7885;42.596;23.044;2023-04-23T12:30:06;92762.13;;;20.53;27.21
15568;BME280;7885;42.596;23.044;2023-04-23T12:32:33;92766.41;;;20.45;27.23
15568;BME280;7885;42.596;23.044;2023-04-23T12:35:00;92752.59;;;20.36;27.45
15568;BME280;7885;42.596;23.044;2023-04-23T12:37:34;92761.81;;;20.42;26.79
15568;BME280;7885;42.596;23.044;2023-04-23T12:40:03;92763.06;;;20.50;27.11
15568;BME280;7885;42.596;23.044;2023-04-23T12:42:32;92762.59;;;20.61;27.05
15568;BME280;7885;42.596;23.044;2023-04-23T12:45:04;92761.81;;;20.70;26.74
15568;BME280;7885;42.596;23.044;2023-04-23T12:47:31;92741.25;;;20.61;25.95
15568;BME280;7885;42.596;23.044;2023-04-23T12:49:58;92755.34;;;20.91;26.01
15568;BME280;7885;42.596;23.044;2023-04-23T12:52:25;92743.25;;;21.39;26.13
15568;BME280;7885;42.596;23.044;2023-04-23T12:54:52;92752.88;;;22.19;26.54
15568;BME280;7885;42.596;23.044;2023-04-23T12:57:21;92751.94;;;22.84;25.43
15568;BME280;7885;42.596;23.044;2023-04-23T12:59:48;92745.94;;;23.29;25.34
15568;BME280;7885;42.596;23.044;2023-04-23T13:02:15;92739.50;;;23.67;24.87
15568;BME280;7885;42.596;23.044;2023-04-23T13:04:42;92740.72;;;23.81;23.63
15568;BME280;7885;42.596;23.044;2023-04-23T13:07:09;92731.03;;;23.91;23.45
15568;BME280;7885;42.596;23.044;2023-04-23T13:09:35;92729.88;;;23.83;23.58
15568;BME280;7885;42.596;23.044;2023-04-23T13:12:02;92727.16;;;23.68;23.50
15568;BME280;7885;42.596;23.044;2023-04-23T13:14:30;92729.00;;;23.56;25.31
15568;BME280;7885;42.596;23.044;2023-04-23T13:16:57;92724.97;;;23.28;23.93